createdAt,value
2022-09-21T00:01:24.339Z,37.9
2022-09-21T00:06:24.769Z,37.8
2022-09-21T00:11:25.152Z,37.7
2022-09-21T00:16:25.556Z,37.7
2022-09-21T00:21:25.957Z,37.7
2022-09-21T00:26:26.330Z,37.6
2022-09-21T00:31:26.765Z,37.6
2022-09-21T00:36:27.127Z,37.6
2022-09-21T00:41:27.684Z,37.5
2022-09-21T00:46:28.039Z,37.4
2022-09-21T00:51:28.369Z,37.4
2022-09-21T00:56:28.723Z,37.4
2022-09-21T01:01:29.076Z,37.3
2022-09-21T01:06:29.403Z,37.2
2022-09-21T01:11:29.742Z,37.2
2022-09-21T01:16:30.116Z,37.2
2022-09-21T01:21:30.554Z,37.1
2022-09-21T01:26:30.865Z,37.1
2022-09-21T01:31:31.226Z,37.1
2022-09-21T01:36:31.611Z,37
2022-09-21T01:41:31.900Z,37
2022-09-21T01:46:32.213Z,36.9
2022-09-21T01:51:32.594Z,36.9
2022-09-21T01:56:32.934Z,36.9
2022-09-21T02:01:33.305Z,36.8
2022-09-21T02:06:33.650Z,36.8
2022-09-21T02:11:34.227Z,36.7
2022-09-21T02:16:34.789Z,36.7
2022-09-21T02:21:35.101Z,36.7
2022-09-21T02:26:35.437Z,36.6
2022-09-21T02:31:35.856Z,36.6
2022-09-21T02:36:36.343Z,36.6
2022-09-21T02:41:36.663Z,36.5
2022-09-21T02:46:37.042Z,36.5
2022-09-21T02:51:37.398Z,36.4
2022-09-21T02:56:37.706Z,36.4
2022-09-21T03:01:38.065Z,36.4
2022-09-21T03:06:38.439Z,36.3
2022-09-21T03:11:38.775Z,36.3
2022-09-21T03:16:39.086Z,36.2
2022-09-21T03:21:43.829Z,36.2
2022-09-21T03:26:45.073Z,36.2
2022-09-21T03:31:45.413Z,36.2
2022-09-21T03:36:46.599Z,36.1
2022-09-21T03:41:46.894Z,36.1
2022-09-21T03:46:47.208Z,36.1
2022-09-21T03:51:47.492Z,36
2022-09-21T03:56:47.823Z,36
2022-09-21T04:01:48.161Z,35.9
2022-09-21T04:06:48.584Z,35.9
2022-09-21T04:11:48.890Z,35.9
2022-09-21T04:16:49.190Z,35.9
2022-09-21T04:21:49.512Z,35.8
2022-09-21T04:26:49.860Z,35.8
2022-09-21T04:31:50.160Z,35.7
2022-09-21T04:36:50.489Z,35.7
2022-09-21T04:41:50.775Z,35.7
2022-09-21T04:46:51.107Z,35.7
2022-09-21T04:51:51.412Z,35.6
2022-09-21T04:56:51.736Z,35.6
2022-09-21T05:01:52.306Z,35.6
2022-09-21T05:06:52.647Z,35.6
2022-09-21T05:11:52.987Z,35.5
2022-09-21T05:16:53.298Z,35.5
2022-09-21T05:21:53.874Z,35.4
2022-09-21T05:26:54.241Z,35.4
2022-09-21T05:31:54.632Z,35.4
2022-09-21T05:36:54.955Z,35.4
2022-09-21T05:41:55.251Z,35.3
2022-09-21T05:46:56.429Z,35.3
2022-09-21T05:51:56.857Z,35.2
2022-09-21T05:56:57.135Z,35.2
2022-09-21T06:01:57.429Z,35.2
2022-09-21T06:06:57.837Z,35.2
2022-09-21T06:11:58.209Z,35.2
2022-09-21T06:16:58.547Z,35.1
2022-09-21T06:21:58.923Z,35.1
2022-09-21T06:27:00.128Z,35.1
2022-09-21T06:32:00.422Z,35.1
2022-09-21T06:37:00.711Z,35.1
2022-09-21T06:42:01.005Z,35
2022-09-21T06:47:01.727Z,35
2022-09-21T06:52:02.091Z,34.9
2022-09-21T06:57:02.339Z,34.9
2022-09-21T07:02:02.679Z,34.9
2022-09-21T07:07:04.715Z,34.9
2022-09-21T07:12:05.290Z,34.8
2022-09-21T07:17:05.547Z,34.8
2022-09-21T07:22:06.042Z,34.8
2022-09-21T07:27:06.319Z,34.7
2022-09-21T07:32:06.578Z,34.7
2022-09-21T07:37:06.836Z,34.7
2022-09-21T07:42:07.067Z,34.7
2022-09-21T07:47:07.327Z,34.7
2022-09-21T07:52:10.712Z,34.6
2022-09-21T07:57:11.309Z,34.6
2022-09-21T08:02:11.975Z,34.6
2022-09-21T08:07:12.241Z,34.6
2022-09-21T08:12:12.735Z,34.6
2022-09-21T08:17:12.980Z,34.5
2022-09-21T08:22:14.182Z,34.5
2022-09-21T08:27:14.472Z,34.4
2022-09-21T08:32:27.688Z,34.4
2022-09-21T08:37:39.776Z,34.4
2022-09-21T08:42:40.016Z,34.4
2022-09-21T08:47:40.293Z,34.4
2022-09-21T08:52:40.551Z,34.4
2022-09-21T08:57:40.878Z,34.3
2022-09-21T09:02:41.368Z,34.3
2022-09-21T09:07:41.626Z,34.2
2022-09-21T09:12:41.889Z,34.2
2022-09-21T09:17:42.183Z,34.2
2022-09-21T09:22:43.315Z,34.2
2022-09-21T09:27:43.572Z,34.2
2022-09-21T09:32:43.859Z,34.1
2022-09-21T09:37:44.129Z,34.1
2022-09-21T09:42:44.380Z,34.1
2022-09-21T09:47:44.602Z,34.1
2022-09-21T09:52:44.826Z,34.1
2022-09-21T09:57:45.177Z,34.1
2022-09-21T10:02:45.749Z,34
2022-09-21T10:07:46.009Z,34
2022-09-21T10:12:46.496Z,34
2022-09-21T10:17:46.787Z,33.9
2022-09-21T10:22:47.065Z,33.9
2022-09-21T10:27:47.298Z,33.9
2022-09-21T10:32:47.566Z,33.9
2022-09-21T10:37:47.818Z,33.9
2022-09-21T10:42:48.052Z,33.9
2022-09-21T10:47:48.316Z,33.8
2022-09-21T10:52:48.806Z,33.8
2022-09-21T10:57:49.087Z,33.7
2022-09-21T11:02:49.360Z,33.7
2022-09-21T11:07:49.621Z,33.7
2022-09-21T11:12:49.867Z,33.7
2022-09-21T11:17:50.336Z,33.7
2022-09-21T11:22:53.226Z,33.7
2022-09-21T11:27:55.702Z,33.6
2022-09-21T11:32:55.959Z,33.6
2022-09-21T11:37:56.161Z,33.6
2022-09-21T11:42:56.403Z,33.6
2022-09-21T11:47:56.858Z,33.6
2022-09-21T11:52:57.320Z,33.6
2022-09-21T11:57:57.563Z,33.6
2022-09-21T12:02:57.798Z,33.5
2022-09-21T12:07:58.246Z,33.5
2022-09-21T12:12:58.498Z,33.5
2022-09-21T12:17:58.732Z,33.4
2022-09-21T12:22:58.939Z,33.4
2022-09-21T12:27:59.159Z,33.4
2022-09-21T12:32:59.409Z,33.3
2022-09-21T12:37:59.620Z,33.3
2022-09-21T12:42:59.847Z,33.3
2022-09-21T12:48:00.100Z,33.2
2022-09-21T12:53:00.359Z,33.2
2022-09-21T12:58:16.434Z,33.2
2022-09-21T13:03:16.851Z,33.2
2022-09-21T13:08:17.103Z,33.2
2022-09-21T13:13:17.319Z,33.2
2022-09-21T13:18:17.550Z,33.2
2022-09-21T13:23:17.753Z,33.1
2022-09-21T13:28:18.879Z,33.1
2022-09-21T13:33:19.118Z,33.1
2022-09-21T13:38:19.534Z,33.1
2022-09-21T13:43:19.764Z,33.1
2022-09-21T13:48:20.264Z,32.9
2022-09-21T13:53:20.497Z,32.5
2022-09-21T13:58:20.682Z,32.4
2022-09-21T14:03:20.865Z,32.4
2022-09-21T14:08:21.073Z,32.4
2022-09-21T14:13:21.285Z,32.4
2022-09-21T14:18:21.710Z,32.4
2022-09-21T14:23:21.899Z,32.3
2022-09-21T14:28:22.136Z,32.3
2022-09-21T14:33:22.555Z,32.3
2022-09-21T14:38:22.774Z,32.3
2022-09-21T14:43:23.223Z,32.2
2022-09-21T14:48:23.423Z,32.2
2022-09-21T14:53:23.835Z,32.2
2022-09-21T14:58:24.286Z,32.2
2022-09-21T15:03:24.521Z,32.2
2022-09-21T15:08:24.835Z,32.2
2022-09-21T15:13:25.241Z,32.2
2022-09-21T15:18:25.432Z,32.2
2022-09-21T15:23:25.647Z,32.1
2022-09-21T15:28:25.837Z,32.1
2022-09-21T15:33:26.051Z,32.1
2022-09-21T15:38:26.234Z,32.1
2022-09-21T15:43:26.644Z,32.1
2022-09-21T15:48:26.867Z,32.1
2022-09-21T15:53:27.030Z,32.1
2022-09-21T15:58:27.229Z,32.1
2022-09-21T16:03:27.466Z,32.1
2022-09-21T16:08:27.656Z,32
2022-09-21T16:13:27.865Z,32
2022-09-21T16:18:28.053Z,32
2022-09-21T16:23:28.237Z,32
2022-09-21T16:28:28.448Z,32
2022-09-21T16:33:28.620Z,31.9
2022-09-21T16:38:30.460Z,31.9
2022-09-21T16:43:32.313Z,31.9
2022-09-21T16:48:32.502Z,32.9
2022-09-21T16:53:33.034Z,35.6
2022-09-21T16:58:33.385Z,37.6
2022-09-21T17:03:33.878Z,39.3
2022-09-21T17:08:34.304Z,40.6
2022-09-21T17:13:34.960Z,41.4
2022-09-21T17:18:35.407Z,42.1
2022-09-21T17:23:35.920Z,42.6
2022-09-21T17:28:36.455Z,43.1
2022-09-21T17:33:36.982Z,43.5
2022-09-21T17:38:37.504Z,43.6
2022-09-21T17:43:38.075Z,43.7
2022-09-21T17:48:38.627Z,43.7
2022-09-21T17:53:39.168Z,43.7
2022-09-21T17:58:39.705Z,43.7
2022-09-21T18:03:40.262Z,43.6
2022-09-21T18:08:40.838Z,43.6
2022-09-21T18:13:41.402Z,43.6
2022-09-21T18:18:41.955Z,43.6
2022-09-21T18:23:42.501Z,43.5
2022-09-21T18:28:43.031Z,43.5
2022-09-21T18:33:43.565Z,43.5
2022-09-21T18:38:44.081Z,43.4
2022-09-21T18:43:44.842Z,43.4
2022-09-21T18:48:50.082Z,43.4
2022-09-21T18:53:51.350Z,43.3
2022-09-21T18:58:51.883Z,43.3
2022-09-21T19:03:52.418Z,43.3
2022-09-21T19:08:52.899Z,43.3
2022-09-21T19:13:53.670Z,43.3
2022-09-21T19:18:54.201Z,43.2
2022-09-21T19:23:54.735Z,43.1
2022-09-21T19:28:55.238Z,43.1
2022-09-21T19:33:55.997Z,43.1
2022-09-21T19:38:56.525Z,43
2022-09-21T19:43:57.077Z,43
2022-09-21T19:48:57.597Z,43
2022-09-21T19:53:58.165Z,42.9
2022-09-21T19:58:58.696Z,42.9
2022-09-21T20:03:59.204Z,42.9
2022-09-21T20:08:59.718Z,42.8
2022-09-21T20:14:00.465Z,42.8
2022-09-21T20:19:00.966Z,42.7
2022-09-21T20:24:01.469Z,42.7
2022-09-21T20:29:01.979Z,42.7
2022-09-21T20:34:02.484Z,42.6
2022-09-21T20:39:02.983Z,42.6
2022-09-21T20:44:03.724Z,42.5
2022-09-21T20:49:04.236Z,42.4
2022-09-21T20:54:05.048Z,42.4
2022-09-21T20:59:05.723Z,42.4
2022-09-21T21:04:06.364Z,42.3
2022-09-21T21:09:06.931Z,42.3
2022-09-21T21:14:07.465Z,42.2
2022-09-21T21:19:07.967Z,42.2
2022-09-21T21:24:08.416Z,39.8
2022-09-21T21:29:08.840Z,38.9
2022-09-21T21:34:09.302Z,38.6
2022-09-21T21:39:09.749Z,38.6
2022-09-21T21:44:10.137Z,38.5
2022-09-21T21:49:10.556Z,38.4
2022-09-21T21:54:10.962Z,38.4
2022-09-21T21:59:15.470Z,38.4
2022-09-21T22:04:18.088Z,38.2
2022-09-21T22:09:18.483Z,38.2
2022-09-21T22:14:18.871Z,38.2
2022-09-21T22:19:19.232Z,38.1
2022-09-21T22:24:19.616Z,38.1
2022-09-21T22:29:19.996Z,38
2022-09-21T22:34:20.386Z,38
2022-09-21T22:39:20.726Z,37.9
2022-09-21T22:44:21.042Z,37.9
2022-09-21T22:49:21.373Z,37.8
2022-09-21T22:54:21.948Z,37.7
2022-09-21T22:59:22.266Z,37.7
2022-09-21T23:04:22.668Z,37.7
2022-09-21T23:09:23.160Z,37.6
2022-09-21T23:14:23.474Z,37.6
2022-09-21T23:19:23.783Z,37.5
2022-09-21T23:24:24.088Z,37.4
2022-09-21T23:29:24.456Z,37.4
2022-09-21T23:34:24.775Z,37.4
2022-09-21T23:39:25.071Z,37.3
2022-09-21T23:44:25.418Z,37.2
2022-09-21T23:49:25.751Z,37.2
2022-09-21T23:54:26.053Z,37.2
2022-09-21T23:59:26.370Z,37.1
